Fredericksburg, VA

3:56 PM EST on December 11, 2019 (GMT -0500)
Shannon

Weather History for KEZF - October, 2019

Change the Weather History Date:

Saturday, October 5, 2019

  Actual Average (WUND) Record (WUND)
Temperature  
Mean Temperature 58 °F -  
Max Temperature 67 °F - - (-1)
Min Temperature 48 °F - - (-1)
Degree Days  
Heating Degree Days 8    
Growing Degree Days 8 (Base 50)    
Moisture  
Dew Point 49 °F    
Average Humidity 70    
Maximum Humidity 82    
Minimum Humidity 56    
Precipitation  
Precipitation 0.00 in - - ()
Sea Level Pressure  
Sea Level Pressure 30.34 in    
Wind  
Wind Speed 7 mph ()    
Max Wind Speed 14 mph    
Max Gust Speed -    
Visibility 10.0 miles    
Events      
Averages and records for this station are not official NWS values.
T = Trace of Precipitation, MM = Missing Value Source: Averaged Metar Reports

Daily Weather History Graph

Daily Weather History Graph

Search for Another Location

Airport or City:

Astronomy

Oct. 05, 2019 Rise Set
Actual Time 7:08 AM EDT 6:46 PM EDT
Civil Twilight 6:42 AM EDT 7:13 PM EDT
Nautical Twilight 6:11 AM EDT 7:43 PM EDT
Astronomical Twilight 5:41 AM EDT 8:14 PM EDT
Moon 2:28 PM EDT (10/5) No Moon Set
Length of Visible Light 12h 30m
Length of Day
11h 37m
Waxing Crescent, 50% of the Moon is Illuminated
Oct 5
Waxing Crescent
Oct 5
First Quarter
Oct 13
Full
Oct 21
Last Quarter
Oct 27
New

Hourly Weather History & Observations

Time (EDT) Temp. Dew Point Humidity Pressure Visibility Wind Dir Wind Speed Gust Speed Precip Events Conditions
12:15 AM 57.4 °F 44.8 °F 63% 30.32 in 10.0 mi NE 11.5 mph - N/A   Clear
12:35 AM 56.8 °F 45.0 °F 64% 30.32 in 10.0 mi NNE 13.8 mph - N/A   Clear
12:55 AM 56.3 °F 45.1 °F 66% 30.32 in 10.0 mi NNE 6.9 mph - N/A   Clear
1:15 AM 55.8 °F 45.1 °F 67% 30.33 in 10.0 mi NE 6.9 mph - N/A   Clear
1:35 AM 55.4 °F 45.3 °F 69% 30.34 in 10.0 mi NNE 6.9 mph - N/A   Clear
1:55 AM 55.0 °F 45.3 °F 70% 30.34 in 10.0 mi NNE 5.8 mph - N/A   Clear
2:15 AM 54.7 °F 45.5 °F 71% 30.35 in 10.0 mi NNE 5.8 mph - N/A   Clear
2:35 AM 54.5 °F 45.5 °F 72% 30.35 in 10.0 mi North 3.5 mph - N/A   Clear
2:55 AM 53.2 °F 44.6 °F 72% 30.35 in 10.0 mi North 5.8 mph - N/A   Clear
3:15 AM 53.1 °F 44.4 °F 72% 30.35 in 10.0 mi North 3.5 mph - N/A   Clear
3:35 AM 52.7 °F 43.9 °F 72% 30.35 in 10.0 mi North 9.2 mph - N/A   Clear
3:55 AM 51.8 °F 43.9 °F 74% 30.35 in 10.0 mi North 8.1 mph - N/A   Clear
4:15 AM 51.1 °F 43.7 °F 76% 30.35 in 10.0 mi North 9.2 mph - N/A   Clear
4:35 AM 50.5 °F 43.7 °F 77% 30.35 in 10.0 mi North 8.1 mph - N/A   Clear
4:55 AM 50.2 °F 43.7 °F 78% 30.36 in 10.0 mi North 6.9 mph - N/A   Clear
5:15 AM 50.0 °F 43.7 °F 79% 30.36 in 10.0 mi North 5.8 mph - N/A   Clear
5:35 AM 49.6 °F 43.7 °F 80% 30.36 in 10.0 mi North 4.6 mph - N/A   Clear
5:55 AM 49.1 °F 43.7 °F 82% 30.36 in 10.0 mi NNW 3.5 mph - N/A   Clear
6:15 AM 49.1 °F 43.3 °F 81% 30.37 in 10.0 mi NNW 6.9 mph - N/A   Clear
6:35 AM 49.1 °F 43.3 °F 81% 30.38 in 10.0 mi NNW 4.6 mph - N/A   Clear
6:55 AM 49.1 °F 42.8 °F 79% 30.38 in 10.0 mi North 5.8 mph - N/A   Clear
7:15 AM 48.7 °F 42.8 °F 80% 30.38 in 10.0 mi North 5.8 mph - N/A   Clear
7:35 AM 48.6 °F 42.8 °F 80% 30.39 in 10.0 mi NNW 5.8 mph - N/A   Clear
7:55 AM 48.7 °F 43.0 °F 80% 30.40 in 10.0 mi North 9.2 mph - N/A   Mostly Cloudy
8:15 AM 48.6 °F 43.0 °F 81% 30.40 in 10.0 mi North 6.9 mph - N/A   Scattered Clouds
8:35 AM 49.6 °F 43.3 °F 79% 30.42 in 10.0 mi North 5.8 mph - N/A   Clear
8:55 AM 50.2 °F 43.3 °F 77% 30.42 in 10.0 mi North 5.8 mph - N/A   Scattered Clouds
9:15 AM 51.3 °F 44.1 °F 76% 30.41 in 10.0 mi NNW 5.8 mph - N/A   Scattered Clouds
9:35 AM 52.9 °F 45.0 °F 74% 30.42 in 10.0 mi North 8.1 mph - N/A   Clear
9:55 AM 54.5 °F 46.4 °F 74% 30.42 in 10.0 mi NNE 8.1 mph - N/A   Mostly Cloudy
10:15 AM 55.8 °F 47.3 °F 73% 30.41 in 10.0 mi NNE 6.9 mph - N/A   Mostly Cloudy
10:35 AM 57.2 °F 48.0 °F 71% 30.40 in 10.0 mi North 5.8 mph - N/A   Scattered Clouds
10:55 AM 57.4 °F 48.0 °F 71% 30.40 in 10.0 mi NE 9.2 mph - N/A   Scattered Clouds
11:35 AM 60.1 °F 49.5 °F 68% 30.40 in 10.0 mi ENE 5.8 mph - N/A   Clear
11:55 AM 61.5 °F 49.8 °F 65% 30.39 in 10.0 mi NE 8.1 mph - N/A   Scattered Clouds
12:15 PM 62.2 °F 50.4 °F 65% 30.39 in 10.0 mi East 4.6 mph - N/A   Scattered Clouds
12:35 PM 63.5 °F 51.1 °F 64% 30.38 in 10.0 mi NNE 5.8 mph - N/A   Overcast
12:55 PM 64.6 °F 50.7 °F 61% 30.37 in 10.0 mi East 5.8 mph - N/A   Overcast
1:15 PM 64.4 °F 51.1 °F 62% 30.37 in 10.0 mi ESE 4.6 mph - N/A   Overcast
1:35 PM 64.2 °F 50.9 °F 62% 30.35 in 10.0 mi SE 6.9 mph - N/A   Overcast
1:55 PM 64.9 °F 50.7 °F 60% 30.34 in 10.0 mi ESE 6.9 mph - N/A   Overcast
2:15 PM 67.6 °F 51.3 °F 56% 30.33 in 10.0 mi ESE 6.9 mph - N/A   Mostly Cloudy
2:55 PM 65.5 °F 51.3 °F 60% 30.32 in 10.0 mi ESE 8.1 mph - N/A   Overcast
3:15 PM 65.8 °F 51.3 °F 59% 30.32 in 10.0 mi ENE 3.5 mph - N/A   Overcast
3:35 PM 66.4 °F 51.8 °F 59% 30.32 in 10.0 mi East 4.6 mph - N/A   Overcast
3:55 PM 66.2 °F 51.8 °F 60% 30.31 in 10.0 mi ESE 5.8 mph - N/A   Overcast
4:15 PM 66.6 °F 52.5 °F 61% 30.31 in 10.0 mi East 5.8 mph - N/A   Overcast
4:35 PM 66.2 °F 52.2 °F 61% 30.30 in 10.0 mi East 6.9 mph - N/A   Overcast
4:55 PM 66.4 °F 52.9 °F 62% 30.30 in 10.0 mi East 8.1 mph - N/A   Overcast
5:15 PM 66.4 °F 52.5 °F 61% 30.30 in 10.0 mi ESE 5.8 mph - N/A   Overcast
5:35 PM 66.2 °F 52.5 °F 61% 30.30 in 10.0 mi East 9.2 mph - N/A   Overcast
5:55 PM 65.7 °F 52.0 °F 61% 30.30 in 10.0 mi East 5.8 mph - N/A   Overcast
6:15 PM 65.7 °F 52.0 °F 61% 30.30 in 10.0 mi East 6.9 mph - N/A   Overcast
6:35 PM 65.3 °F 51.8 °F 62% 30.30 in 10.0 mi East 4.6 mph - N/A   Overcast
6:55 PM 64.9 °F 51.8 °F 62% 30.29 in 10.0 mi East 5.8 mph - N/A   Overcast
7:15 PM 64.6 °F 51.6 °F 63% 30.29 in 10.0 mi East 6.9 mph - N/A   Overcast
7:35 PM 64.4 °F 51.8 °F 64% 30.30 in 10.0 mi ESE 4.6 mph - N/A   Overcast
7:55 PM 64.4 °F 51.8 °F 64% 30.29 in 10.0 mi ESE 4.6 mph - N/A   Overcast
8:15 PM 63.9 °F 52.0 °F 65% 30.30 in 10.0 mi ESE 5.8 mph - N/A   Overcast
8:35 PM 63.7 °F 52.5 °F 67% 30.30 in 10.0 mi SE 5.8 mph - N/A   Overcast
8:55 PM 63.5 °F 52.9 °F 68% 30.30 in 10.0 mi SE 9.2 mph - N/A   Overcast
9:15 PM 63.1 °F 53.1 °F 70% 30.31 in 10.0 mi SE 6.9 mph - N/A   Overcast
9:35 PM 62.8 °F 53.6 °F 72% 30.31 in 10.0 mi SE 6.9 mph - N/A   Overcast
9:55 PM 62.6 °F 53.8 °F 73% 30.31 in 10.0 mi SE 6.9 mph - N/A   Overcast
10:15 PM 62.6 °F 54.1 °F 74% 30.31 in 10.0 mi SE 5.8 mph - N/A   Overcast
10:35 PM 62.6 °F 54.5 °F 75% 30.31 in 10.0 mi SE 4.6 mph - N/A   Overcast
10:55 PM 62.2 °F 54.7 °F 76% 30.31 in 10.0 mi SE 4.6 mph - N/A   Overcast
11:15 PM 62.1 °F 54.9 °F 77% 30.31 in 10.0 mi SE 4.6 mph - N/A   Overcast
11:35 PM 61.9 °F 55.2 °F 79% 30.31 in 10.0 mi SSE 4.6 mph - N/A   Overcast
11:55 PM 61.7 °F 55.4 °F 80% 30.31 in 10.0 mi Calm Calm - N/A   Overcast